createdAt,value
2022-10-28T00:00:31.896Z,77.08
2022-10-28T00:04:35.107Z,77.11
2022-10-28T00:08:36.611Z,77.41
2022-10-28T00:12:38.237Z,77.51
2022-10-28T00:16:40.640Z,76.80
2022-10-28T00:20:43.476Z,76.27
2022-10-28T00:24:45.003Z,75.30
2022-10-28T00:28:48.259Z,74.73
2022-10-28T00:32:49.928Z,75.08
2022-10-28T00:36:52.924Z,75.07
2022-10-28T00:40:54.352Z,74.83
2022-10-28T00:44:58.399Z,75.38
2022-10-28T00:49:04.171Z,77.47
2022-10-28T00:53:14.064Z,78.40
2022-10-28T00:57:18.812Z,75.24
2022-10-28T01:01:20.284Z,75.12
2022-10-28T01:05:27.622Z,74.80
2022-10-28T01:09:30.408Z,73.34
2022-10-28T01:13:43.727Z,70.68
2022-10-28T01:17:54.951Z,69.12
2022-10-28T01:22:13.236Z,68.65
2022-10-28T01:26:38.919Z,68.03
2022-10-28T01:31:10.422Z,67.76
2022-10-28T01:35:18.938Z,67.76
2022-10-28T01:39:29.115Z,67.05
2022-10-28T01:43:36.300Z,67.48
2022-10-28T01:47:47.140Z,67.41
2022-10-28T01:51:53.687Z,68.43
2022-10-28T01:55:59.215Z,68.59
2022-10-28T02:00:02.034Z,69.12
2022-10-28T02:04:08.083Z,68.73
2022-10-28T02:08:27.851Z,68.46
2022-10-28T02:12:31.880Z,67.43
2022-10-28T02:16:43.688Z,67.60
2022-10-28T02:20:52.791Z,67.55
2022-10-28T02:25:01.171Z,68.68
2022-10-28T02:29:07.581Z,70.75
2022-10-28T02:33:12.664Z,70.87
2022-10-28T02:37:20.851Z,70.39
2022-10-28T02:41:26.796Z,69.90
2022-10-28T02:45:34.564Z,70.16
2022-10-28T02:49:42.133Z,69.59
2022-10-28T02:53:55.427Z,68.93
2022-10-28T02:57:57.363Z,69.00
2022-10-28T03:01:59.108Z,67.71
2022-10-28T03:06:00.832Z,68.56
2022-10-28T03:10:04.163Z,68.37
2022-10-28T03:14:10.669Z,71.44
2022-10-28T03:18:14.651Z,73.25
2022-10-28T03:22:16.311Z,74.88
2022-10-28T03:26:19.055Z,76.08
2022-10-28T03:30:20.695Z,76.24
2022-10-28T03:34:22.171Z,74.93
2022-10-28T03:38:23.699Z,74.38
2022-10-28T03:42:26.475Z,73.56
2022-10-28T03:46:29.134Z,72.68
2022-10-28T03:50:32.687Z,72.66
2022-10-28T03:54:34.072Z,72.34
2022-10-28T03:58:40.895Z,74.05
2022-10-28T04:02:42.771Z,74.78
2022-10-28T04:06:44.196Z,74.83
2022-10-28T04:10:47.633Z,76.47
2022-10-28T04:14:50.687Z,75.51
2022-10-28T04:18:52.265Z,75.44
2022-10-28T04:22:56.229Z,74.71
2022-10-28T04:26:58.711Z,73.97
2022-10-28T04:31:01.655Z,76.65
2022-10-28T04:35:03.561Z,78.22
2022-10-28T04:39:05.117Z,79.34
2022-10-28T04:43:08.582Z,80.18
2022-10-28T04:47:13.139Z,80.63
2022-10-28T04:51:14.689Z,80.13
2022-10-28T04:55:16.424Z,79.59
2022-10-28T04:59:17.824Z,79.75
2022-10-28T05:03:20.628Z,79.03
2022-10-28T05:07:23.561Z,80.34
2022-10-28T05:11:25.167Z,80.10
2022-10-28T05:15:26.583Z,78.83
2022-10-28T05:19:29.339Z,76.82
2022-10-28T05:23:31.101Z,75.53
2022-10-28T05:27:33.655Z,75.57
2022-10-28T05:31:35.051Z,77.57
2022-10-28T05:35:37.993Z,78.51
2022-10-28T05:39:39.408Z,78.66
2022-10-28T05:43:40.823Z,77.62
2022-10-28T05:47:42.997Z,77.79
2022-10-28T05:51:46.124Z,79.00
2022-10-28T05:55:48.018Z,79.00
2022-10-28T05:59:52.228Z,77.70
2022-10-28T06:03:53.670Z,78.44
2022-10-28T06:07:56.497Z,78.30
2022-10-28T06:11:56.394Z,76.69
2022-10-28T06:15:57.973Z,76.22
2022-10-28T06:19:59.461Z,76.37
2022-10-28T06:24:02.472Z,75.61
2022-10-28T06:28:06.972Z,75.55
2022-10-28T06:32:11.834Z,76.86
2022-10-28T06:36:13.210Z,77.12
2022-10-28T06:40:16.112Z,77.09
2022-10-28T06:44:17.524Z,76.38
2022-10-28T06:48:20.845Z,74.94
2022-10-28T06:52:22.219Z,74.25
2022-10-28T06:56:25.160Z,73.00
2022-10-28T07:00:27.425Z,72.54
2022-10-28T07:04:29.376Z,72.33
2022-10-28T07:08:32.365Z,72.74
2022-10-28T07:12:35.245Z,73.32
2022-10-28T07:16:36.934Z,73.20
2022-10-28T07:20:40.757Z,72.67
2022-10-28T07:24:42.160Z,71.83
2022-10-28T07:28:45.177Z,71.74
2022-10-28T07:32:46.825Z,71.38
2022-10-28T07:36:49.471Z,71.07
2022-10-28T07:40:51.061Z,70.12
2022-10-28T07:44:53.960Z,69.44
2022-10-28T07:48:55.325Z,69.01
2022-10-28T07:52:57.268Z,68.95
2022-10-28T07:56:58.931Z,68.50
2022-10-28T08:01:04.818Z,68.30
2022-10-28T08:05:07.198Z,67.54
2022-10-28T08:09:08.652Z,68.35
2022-10-28T08:13:10.026Z,67.91
2022-10-28T08:17:13.012Z,67.37
2022-10-28T08:21:15.385Z,67.35
2022-10-28T08:25:16.936Z,67.79
2022-10-28T08:29:18.560Z,67.66
2022-10-28T08:33:21.503Z,68.24
2022-10-28T08:37:23.232Z,67.93
2022-10-28T08:41:32.967Z,66.75
2022-10-28T08:45:44.431Z,66.70
2022-10-28T08:49:52.215Z,65.77
2022-10-28T08:53:57.010Z,65.79
2022-10-28T08:58:06.572Z,65.08
2022-10-28T09:02:19.743Z,65.61
2022-10-28T09:06:22.692Z,65.51
2022-10-28T09:10:52.342Z,65.64
2022-10-28T09:15:18.199Z,65.07
2022-10-28T09:19:33.969Z,64.90
2022-10-28T09:23:45.381Z,64.94
2022-10-28T09:27:58.030Z,64.55
2022-10-28T09:32:11.180Z,64.35
2022-10-28T09:36:18.240Z,63.54
2022-10-28T09:40:24.110Z,62.50
2022-10-28T09:44:32.508Z,62.83
2022-10-28T09:48:37.806Z,61.01
2022-10-28T09:52:50.794Z,60.11
2022-10-28T09:56:53.948Z,60.05
2022-10-28T10:00:55.447Z,59.64
2022-10-28T10:04:58.613Z,57.62
2022-10-28T10:09:00.928Z,56.56
2022-10-28T10:13:06.116Z,54.46
2022-10-28T10:17:15.029Z,53.88
2022-10-28T10:21:16.623Z,53.58
2022-10-28T10:25:27.926Z,52.33
2022-10-28T10:29:30.962Z,51.04
2022-10-28T10:33:35.687Z,50.41
2022-10-28T10:37:42.569Z,50.65
2022-10-28T10:41:45.131Z,49.25
2022-10-28T10:45:52.133Z,49.15
2022-10-28T10:50:19.131Z,49.15
2022-10-28T10:54:20.825Z,47.52
2022-10-28T10:58:24.938Z,45.92
2022-10-28T11:02:32.318Z,44.94
2022-10-28T11:06:38.743Z,44.36
2022-10-28T11:10:40.828Z,44.95
2022-10-28T11:14:55.960Z,42.69
2022-10-28T11:19:12.996Z,43.43
2022-10-28T11:23:36.778Z,43.43
2022-10-28T11:27:56.316Z,43.21
2022-10-28T11:32:12.849Z,43.80
2022-10-28T11:36:23.214Z,44.75
2022-10-28T11:40:33.522Z,45.25
2022-10-28T11:44:45.174Z,45.28
2022-10-28T11:49:06.541Z,45.76
2022-10-28T11:53:36.618Z,45.71
2022-10-28T11:57:53.795Z,44.08
2022-10-28T12:02:09.771Z,43.80
2022-10-28T12:06:17.899Z,43.73
2022-10-28T12:10:42.867Z,43.94
2022-10-28T12:14:53.744Z,42.54
2022-10-28T12:19:00.045Z,42.22
2022-10-28T12:23:06.594Z,42.27
2022-10-28T12:27:17.077Z,42.54
2022-10-28T12:31:24.045Z,43.21
2022-10-28T12:35:30.508Z,45.56
2022-10-28T12:39:34.840Z,45.15
2022-10-28T12:43:42.337Z,47.83
2022-10-28T12:47:51.153Z,48.57
2022-10-28T12:51:53.014Z,44.19
2022-10-28T12:55:58.710Z,43.77
2022-10-28T13:00:10.732Z,49.41
2022-10-28T13:04:13.062Z,45.12
2022-10-28T13:08:35.580Z,45.20
2022-10-28T13:12:53.023Z,46.33
2022-10-28T13:17:20.222Z,45.66
2022-10-28T13:21:31.997Z,45.02
2022-10-28T13:25:59.089Z,43.90
2022-10-28T13:30:01.102Z,44.04
2022-10-28T13:34:04.471Z,44.32
2022-10-28T13:38:11.682Z,44.74
2022-10-28T13:42:44.261Z,44.51
2022-10-28T13:47:26.461Z,45.99
2022-10-28T13:51:44.684Z,45.63
2022-10-28T13:55:46.571Z,47.48
2022-10-28T13:59:52.421Z,46.66
2022-10-28T14:03:53.902Z,47.30
2022-10-28T14:07:59.969Z,47.42
2022-10-28T14:12:13.086Z,46.80
2022-10-28T14:16:24.799Z,50.50
2022-10-28T14:20:33.390Z,54.37
2022-10-28T14:24:37.996Z,55.63
2022-10-28T14:28:50.519Z,57.30
2022-10-28T14:33:19.381Z,56.23
2022-10-28T14:37:49.968Z,59.36
2022-10-28T14:42:04.512Z,59.00
2022-10-28T14:46:18.815Z,56.99
2022-10-28T14:50:22.279Z,52.40
2022-10-28T14:54:36.547Z,55.15
2022-10-28T14:58:44.552Z,56.54
2022-10-28T15:02:46.903Z,59.19
2022-10-28T15:06:50.694Z,55.20
2022-10-28T15:10:52.334Z,53.73
2022-10-28T15:14:56.567Z,53.46
2022-10-28T15:18:57.959Z,51.38
2022-10-28T15:23:12.489Z,53.30
2022-10-28T15:27:14.930Z,53.10
2022-10-28T15:31:17.863Z,52.84
2022-10-28T15:35:39.126Z,54.81
2022-10-28T15:39:40.561Z,53.80
2022-10-28T15:43:54.176Z,54.64
2022-10-28T15:47:59.287Z,54.95
2022-10-28T15:52:21.126Z,53.87
2022-10-28T15:56:24.427Z,58.55
2022-10-28T16:00:28.368Z,60.21
2022-10-28T16:04:43.526Z,62.30
2022-10-28T16:08:45.313Z,62.82
2022-10-28T16:12:46.898Z,63.18
2022-10-28T16:16:48.309Z,64.81
2022-10-28T16:20:51.921Z,65.80
2022-10-28T16:24:54.553Z,66.06
2022-10-28T16:28:56.294Z,66.76
2022-10-28T16:32:57.849Z,68.00
2022-10-28T16:37:00.876Z,67.12
2022-10-28T16:41:03.893Z,67.32
2022-10-28T16:45:06.295Z,67.36
2022-10-28T16:49:07.860Z,68.03
2022-10-28T16:53:13.130Z,68.53
2022-10-28T16:57:15.266Z,68.71
2022-10-28T17:01:20.536Z,69.28
2022-10-28T17:05:23.492Z,69.82
2022-10-28T17:09:26.441Z,70.70
2022-10-28T17:13:27.832Z,70.20
2022-10-28T17:17:29.684Z,70.62
2022-10-28T17:21:31.060Z,70.08
2022-10-28T17:25:33.896Z,71.18
2022-10-28T17:29:35.513Z,71.20
2022-10-28T17:33:36.990Z,71.13
2022-10-28T17:37:38.618Z,71.43
2022-10-28T17:41:41.374Z,71.68
2022-10-28T17:45:42.791Z,71.98
2022-10-28T17:49:44.279Z,72.47
2022-10-28T17:53:45.698Z,72.76
2022-10-28T17:57:48.466Z,73.90
2022-10-28T18:01:49.980Z,73.67
2022-10-28T18:05:51.652Z,74.23
2022-10-28T18:09:53.181Z,74.51
2022-10-28T18:13:56.011Z,74.89
2022-10-28T18:17:57.459Z,74.97
2022-10-28T18:21:59.031Z,75.82
2022-10-28T18:26:02.671Z,75.02
2022-10-28T18:30:09.274Z,75.50
2022-10-28T18:34:10.975Z,75.32
2022-10-28T18:38:13.388Z,75.68
2022-10-28T18:42:17.880Z,75.46
2022-10-28T18:46:25.252Z,75.28
2022-10-28T18:50:26.841Z,75.45
2022-10-28T18:54:28.221Z,75.33
2022-10-28T18:58:29.740Z,75.41
2022-10-28T19:02:32.635Z,75.02
2022-10-28T19:06:34.412Z,75.19
2022-10-28T19:10:35.820Z,75.40
2022-10-28T19:14:37.389Z,75.30
2022-10-28T19:18:40.424Z,75.25
2022-10-28T19:22:42.073Z,74.75
2022-10-28T19:26:43.653Z,74.89
2022-10-28T19:30:45.065Z,74.68
2022-10-28T19:34:47.813Z,74.62
2022-10-28T19:38:51.059Z,75.38
2022-10-28T19:46:59.633Z,75.09
2022-10-28T19:51:02.917Z,75.35
2022-10-28T19:55:05.117Z,74.51
2022-10-28T19:59:07.183Z,75.26
2022-10-28T20:03:08.625Z,75.70
2022-10-28T20:07:11.521Z,75.25
2022-10-28T20:11:15.591Z,75.07
2022-10-28T20:15:17.148Z,74.57
2022-10-28T20:19:18.685Z,74.06
2022-10-28T20:23:21.609Z,73.70
2022-10-28T20:27:23.285Z,72.89
2022-10-28T20:31:26.403Z,72.97
2022-10-28T20:35:27.938Z,73.52
2022-10-28T20:39:30.727Z,73.83
2022-10-28T20:43:32.272Z,74.07
2022-10-28T20:47:33.707Z,74.53
2022-10-28T20:51:35.474Z,74.00
2022-10-28T20:55:44.745Z,73.50
2022-10-28T20:59:46.285Z,74.55
2022-10-28T21:03:49.067Z,74.24
2022-10-28T21:07:50.616Z,74.69
2022-10-28T21:11:53.387Z,74.67
2022-10-28T21:15:57.627Z,75.25
2022-10-28T21:24:06.602Z,75.50
2022-10-28T21:28:09.486Z,75.72
2022-10-28T21:32:10.937Z,75.82
2022-10-28T21:36:14.754Z,75.77
2022-10-28T21:40:16.317Z,76.08
2022-10-28T21:44:19.250Z,76.15
2022-10-28T21:48:20.685Z,75.28
2022-10-28T21:52:22.336Z,76.03
2022-10-28T21:56:23.905Z,76.04
2022-10-28T22:00:26.642Z,76.15
2022-10-28T22:04:28.198Z,76.43
2022-10-28T22:08:29.994Z,76.42
2022-10-28T22:12:31.378Z,76.69
2022-10-28T22:16:35.658Z,77.12
2022-10-28T22:20:42.168Z,77.16
2022-10-28T22:24:45.913Z,77.49
2022-10-28T22:28:48.230Z,77.14
2022-10-28T22:32:50.957Z,77.03
2022-10-28T22:36:52.586Z,77.11
2022-10-28T22:41:04.336Z,77.12
2022-10-28T22:45:07.097Z,77.34
2022-10-28T22:49:10.272Z,77.11
2022-10-28T22:53:11.736Z,77.37
2022-10-28T22:57:13.301Z,77.42
2022-10-28T23:01:17.660Z,77.65
2022-10-28T23:05:20.608Z,77.98
2022-10-28T23:09:22.045Z,77.05
2022-10-28T23:13:23.654Z,77.79
2022-10-28T23:17:28.328Z,76.81
2022-10-28T23:21:31.060Z,75.89
2022-10-28T23:25:32.674Z,76.30
2022-10-28T23:29:34.081Z,76.42
2022-10-28T23:33:35.825Z,76.69
2022-10-28T23:37:38.676Z,76.46
2022-10-28T23:41:40.040Z,76.79
2022-10-28T23:45:41.484Z,77.25
2022-10-28T23:49:43.297Z,77.53
2022-10-28T23:53:46.485Z,77.48
2022-10-28T23:57:50.109Z,77.76
